createdAt,value
2022-11-17T00:02:19.003Z,93669.53
2022-11-17T00:04:45.859Z,93657.69
2022-11-17T00:07:12.546Z,93657.63
2022-11-17T00:09:39.256Z,93640.16
2022-11-17T00:12:28.472Z,93636.47
2022-11-17T00:14:59.148Z,93637.75
2022-11-17T00:17:25.956Z,93621.06
2022-11-17T00:20:11.020Z,93619.91
2022-11-17T00:22:37.784Z,93610.75
2022-11-17T00:25:04.648Z,93608.00
2022-11-17T00:27:31.252Z,93593.31
2022-11-17T00:29:57.960Z,93583.59
2022-11-17T00:32:57.048Z,93595.75
2022-11-17T00:35:24.072Z,93590.00
2022-11-17T00:38:09.258Z,93585.28
2022-11-17T00:40:36.057Z,93574.94
2022-11-17T00:43:02.628Z,93572.75
2022-11-17T00:45:29.277Z,93572.31
2022-11-17T00:47:56.082Z,93560.47
2022-11-17T00:50:24.167Z,93552.38
2022-11-17T00:52:50.808Z,93537.91
2022-11-17T00:55:17.447Z,93542.69
2022-11-17T00:57:44.131Z,93535.28
2022-11-17T01:00:11.147Z,93537.31
2022-11-17T01:02:37.996Z,93529.50
2022-11-17T01:05:04.957Z,93525.66
2022-11-17T01:07:31.584Z,93530.84
2022-11-17T01:09:58.237Z,93524.09
2022-11-17T01:12:24.831Z,93521.81
2022-11-17T01:14:51.473Z,93526.94
2022-11-17T01:17:18.080Z,93517.44
2022-11-17T01:19:44.660Z,93513.59
2022-11-17T01:22:11.256Z,93509.38
2022-11-17T01:24:38.025Z,93504.19
2022-11-17T01:27:04.617Z,93511.94
2022-11-17T01:29:31.234Z,93496.31
2022-11-17T01:31:58.094Z,93509.53
2022-11-17T01:34:24.698Z,93513.94
2022-11-17T01:37:09.908Z,93512.69
2022-11-17T01:39:36.607Z,93517.38
2022-11-17T01:42:11.573Z,93533.22
2022-11-17T01:44:44.638Z,93545.00
2022-11-17T01:47:35.036Z,93525.09
2022-11-17T01:50:22.004Z,93523.53
2022-11-17T01:52:52.458Z,93528.38
2022-11-17T01:55:21.300Z,93524.53
2022-11-17T01:57:54.971Z,93522.56
2022-11-17T02:00:21.741Z,93512.34
2022-11-17T02:02:48.982Z,93518.78
2022-11-17T02:05:37.113Z,93520.28
2022-11-17T02:08:06.445Z,93529.22
2022-11-17T02:10:35.245Z,93519.03
2022-11-17T02:13:02.601Z,93523.25
2022-11-17T02:15:30.254Z,93491.59
2022-11-17T02:17:58.468Z,93511.50
2022-11-17T02:20:48.780Z,93506.16
2022-11-17T02:23:28.599Z,93513.91
2022-11-17T02:27:12.409Z,93504.78
2022-11-17T02:30:00.438Z,93496.81
2022-11-17T02:32:31.170Z,93481.69
2022-11-17T02:35:03.549Z,93493.69
2022-11-17T02:37:30.109Z,93502.22
2022-11-17T02:40:07.580Z,93495.25
2022-11-17T02:42:59.194Z,93490.81
2022-11-17T02:45:31.864Z,93479.88
2022-11-17T02:48:00.592Z,93483.31
2022-11-17T02:50:29.798Z,93498.38
2022-11-17T02:52:57.117Z,93491.19
2022-11-17T02:55:23.710Z,93481.03
2022-11-17T02:57:50.254Z,93466.41
2022-11-17T03:00:19.039Z,93477.94
2022-11-17T03:03:13.274Z,93466.25
2022-11-17T03:06:11.854Z,93470.84
2022-11-17T03:08:52.518Z,93454.44
2022-11-17T03:11:27.272Z,93459.13
2022-11-17T03:14:01.190Z,93466.91
2022-11-17T03:16:37.569Z,93447.38
2022-11-17T03:19:19.235Z,93432.91
2022-11-17T03:21:55.056Z,93431.63
2022-11-17T03:24:28.756Z,93430.78
2022-11-17T03:27:18.069Z,93441.97
2022-11-17T03:29:49.359Z,93448.88
2022-11-17T03:32:18.064Z,93445.34
2022-11-17T03:34:50.836Z,93450.16
2022-11-17T03:37:21.299Z,93461.66
2022-11-17T03:39:52.692Z,93460.69
2022-11-17T03:42:27.852Z,93464.28
2022-11-17T03:45:03.711Z,93457.06
2022-11-17T03:47:33.510Z,93456.47
2022-11-17T03:50:09.080Z,93461.16
2022-11-17T03:52:38.189Z,93465.75
2022-11-17T03:55:06.836Z,93442.53
2022-11-17T03:57:50.324Z,93465.50
2022-11-17T04:00:18.957Z,93459.38
2022-11-17T04:02:48.130Z,93475.03
2022-11-17T04:05:17.444Z,93487.47
2022-11-17T04:07:46.756Z,93484.34
2022-11-17T04:10:16.495Z,93474.84
2022-11-17T04:13:01.775Z,93486.03
2022-11-17T04:15:47.085Z,93442.34
2022-11-17T04:18:14.758Z,93475.75
2022-11-17T04:20:41.720Z,93477.44
2022-11-17T04:23:12.181Z,93473.25
2022-11-17T04:26:05.991Z,93473.41
2022-11-17T04:28:37.473Z,93463.47
2022-11-17T04:31:14.425Z,93470.22
2022-11-17T04:33:52.315Z,93457.31
2022-11-17T04:36:22.381Z,93456.41
2022-11-17T04:38:51.264Z,93468.09
2022-11-17T04:41:38.160Z,93450.19
2022-11-17T04:44:07.031Z,93446.56
2022-11-17T04:46:35.689Z,93452.16
2022-11-17T04:49:03.352Z,93453.13
2022-11-17T04:51:31.447Z,93461.66
2022-11-17T04:53:58.700Z,93462.94
2022-11-17T04:56:26.701Z,93455.13
2022-11-17T04:58:53.820Z,93460.84
2022-11-17T05:01:22.374Z,93453.69
2022-11-17T05:04:06.424Z,93465.13
2022-11-17T05:06:40.481Z,93459.53
2022-11-17T05:09:11.068Z,93463.13
2022-11-17T05:11:56.263Z,93458.81
2022-11-17T05:14:25.028Z,93463.31
2022-11-17T05:17:11.002Z,93462.22
2022-11-17T05:19:41.531Z,93470.03
2022-11-17T05:22:28.491Z,93465.94
2022-11-17T05:24:55.730Z,93439.19
2022-11-17T05:27:24.012Z,93447.88
2022-11-17T05:29:50.879Z,93448.53
2022-11-17T05:32:18.255Z,93440.31
2022-11-17T05:34:44.893Z,93444.41
2022-11-17T05:37:11.564Z,93451.66
2022-11-17T05:39:38.180Z,93449.50
2022-11-17T05:42:05.004Z,93451.78
2022-11-17T05:44:31.595Z,93433.91
2022-11-17T05:46:58.673Z,93435.56
2022-11-17T05:49:25.257Z,93442.13
2022-11-17T05:51:53.129Z,93425.38
2022-11-17T05:54:20.618Z,93426.69
2022-11-17T05:56:52.606Z,93433.75
2022-11-17T05:59:46.858Z,93432.75
2022-11-17T06:02:24.058Z,93428.97
2022-11-17T06:04:51.855Z,93439.19
2022-11-17T06:07:19.631Z,93441.81
2022-11-17T06:09:46.869Z,93442.28
2022-11-17T06:12:15.564Z,93445.00
2022-11-17T06:14:42.752Z,93437.63
2022-11-17T06:17:22.119Z,93445.66
2022-11-17T06:19:57.841Z,93446.16
2022-11-17T06:22:26.882Z,93437.19
2022-11-17T06:24:54.338Z,93433.91
2022-11-17T06:27:21.244Z,93449.94
2022-11-17T06:29:49.470Z,93441.22
2022-11-17T06:32:18.255Z,93464.31
2022-11-17T06:34:51.907Z,93461.50
2022-11-17T06:37:21.972Z,93478.28
2022-11-17T06:39:48.528Z,93474.97
2022-11-17T06:42:15.574Z,93472.50
2022-11-17T06:44:42.484Z,93482.34
2022-11-17T06:47:09.056Z,93482.03
2022-11-17T06:49:35.621Z,93503.03
2022-11-17T06:52:02.323Z,93509.75
2022-11-17T06:54:28.940Z,93501.31
2022-11-17T06:56:55.652Z,93501.84
2022-11-17T06:59:22.702Z,93497.97
2022-11-17T07:01:49.315Z,93499.56
2022-11-17T07:04:15.950Z,93498.41
2022-11-17T07:06:42.860Z,93484.28
2022-11-17T07:09:09.610Z,93493.16
2022-11-17T07:11:36.516Z,93499.88
2022-11-17T07:14:03.914Z,93500.16
2022-11-17T07:16:31.231Z,93506.56
2022-11-17T07:18:59.398Z,93505.22
2022-11-17T07:21:26.446Z,93508.38
2022-11-17T07:23:53.315Z,93523.84
2022-11-17T07:26:19.982Z,93502.41
2022-11-17T07:28:46.815Z,93503.41
2022-11-17T07:31:13.452Z,93504.56
2022-11-17T07:33:40.072Z,93499.28
2022-11-17T07:36:09.788Z,93493.72
2022-11-17T07:38:39.186Z,93511.44
2022-11-17T07:41:07.177Z,93517.00
2022-11-17T07:43:35.340Z,93521.44
2022-11-17T07:46:06.343Z,93515.84
2022-11-17T07:48:33.738Z,93513.06
2022-11-17T07:51:01.663Z,93524.88
2022-11-17T07:53:29.128Z,93516.31
2022-11-17T07:55:56.076Z,93515.25
2022-11-17T07:58:25.749Z,93523.38
2022-11-17T08:00:52.465Z,93521.19
2022-11-17T08:03:19.231Z,93528.47
2022-11-17T08:05:45.964Z,93529.50
2022-11-17T08:08:13.723Z,93539.78
2022-11-17T08:10:40.701Z,93528.56
2022-11-17T08:13:07.746Z,93523.50
2022-11-17T08:15:36.168Z,93527.41
2022-11-17T08:18:03.485Z,93530.97
2022-11-17T08:20:30.402Z,93533.28
2022-11-17T08:22:57.076Z,93524.31
2022-11-17T08:25:26.227Z,93528.13
2022-11-17T08:27:57.955Z,93528.94
2022-11-17T08:30:25.820Z,93516.91
2022-11-17T08:32:53.805Z,93539.66
2022-11-17T08:35:23.149Z,93530.28
2022-11-17T08:37:49.817Z,93546.09
2022-11-17T08:40:18.145Z,93546.50
2022-11-17T08:42:45.590Z,93552.53
2022-11-17T08:45:13.240Z,93557.38
2022-11-17T08:47:40.395Z,93564.91
2022-11-17T08:50:07.756Z,93556.91
2022-11-17T08:52:34.408Z,93560.53
2022-11-17T08:55:01.098Z,93567.50
2022-11-17T08:57:29.912Z,93562.22
2022-11-17T08:59:56.583Z,93568.97
2022-11-17T09:02:23.461Z,93573.19
2022-11-17T09:04:50.864Z,93575.63
2022-11-17T09:07:18.392Z,93573.59
2022-11-17T09:09:46.428Z,93569.78
2022-11-17T09:12:13.285Z,93579.31
2022-11-17T09:14:39.996Z,93589.56
2022-11-17T09:17:06.818Z,93598.34
2022-11-17T09:19:33.804Z,93588.34
2022-11-17T09:22:00.453Z,93586.03
2022-11-17T09:24:27.320Z,93601.31
2022-11-17T09:26:55.201Z,93581.22
2022-11-17T09:29:24.012Z,93587.19
2022-11-17T09:31:50.693Z,93592.34
2022-11-17T09:34:17.499Z,93589.34
2022-11-17T09:36:44.171Z,93599.38
2022-11-17T09:39:11.014Z,93604.53
2022-11-17T09:41:51.952Z,93611.53
2022-11-17T09:44:30.623Z,93609.38
2022-11-17T09:47:16.856Z,93605.75
2022-11-17T09:50:36.584Z,93608.69
2022-11-17T09:53:39.299Z,93622.09
2022-11-17T09:56:08.975Z,93628.00
2022-11-17T09:58:50.615Z,93618.19
2022-11-17T10:01:19.460Z,93624.56
2022-11-17T10:03:48.669Z,93608.53
2022-11-17T10:06:19.648Z,93625.66
2022-11-17T10:09:04.778Z,93620.47
2022-11-17T10:11:35.127Z,93621.94
2022-11-17T10:14:15.870Z,93625.53
2022-11-17T10:16:53.978Z,93625.53
2022-11-17T10:19:24.406Z,93617.09
2022-11-17T10:22:02.967Z,93615.75
2022-11-17T10:24:38.461Z,93602.75
2022-11-17T10:27:27.274Z,93627.66
2022-11-17T10:30:14.996Z,93599.38
2022-11-17T10:32:53.035Z,93596.91
2022-11-17T10:35:26.083Z,93587.38
2022-11-17T10:37:55.694Z,93610.66
2022-11-17T10:40:26.111Z,93603.75
2022-11-17T10:43:14.029Z,93592.72
2022-11-17T10:45:49.655Z,93587.16
2022-11-17T10:48:26.230Z,93593.41
2022-11-17T10:51:02.823Z,93607.81
2022-11-17T10:53:36.871Z,93597.06
2022-11-17T10:56:11.163Z,93596.25
2022-11-17T10:59:02.461Z,93601.97
2022-11-17T11:01:32.285Z,93582.94
2022-11-17T11:03:59.317Z,93585.78
2022-11-17T11:06:29.628Z,93580.97
2022-11-17T11:09:20.952Z,93577.59
2022-11-17T11:11:54.251Z,93589.97
2022-11-17T11:14:40.530Z,93591.28
2022-11-17T11:17:15.958Z,93580.13
2022-11-17T11:19:46.034Z,93592.31
2022-11-17T11:22:35.768Z,93593.03
2022-11-17T11:25:05.699Z,93581.22
2022-11-17T11:27:46.223Z,93573.03
2022-11-17T11:30:16.777Z,93557.69
2022-11-17T11:32:52.417Z,93569.63
2022-11-17T11:35:37.192Z,93573.91
2022-11-17T11:38:06.478Z,93553.75
2022-11-17T11:40:40.005Z,93569.44
2022-11-17T11:43:18.700Z,93576.13
2022-11-17T11:46:14.856Z,93587.41
2022-11-17T11:48:41.728Z,93592.44
2022-11-17T11:51:16.739Z,93594.66
2022-11-17T11:54:08.752Z,93588.38
2022-11-17T11:56:53.871Z,93578.31
2022-11-17T11:59:20.562Z,93571.34
2022-11-17T12:02:11.843Z,93567.38
2022-11-17T12:04:49.125Z,93559.09
2022-11-17T12:07:26.022Z,93559.03
2022-11-17T12:10:24.630Z,93569.78
2022-11-17T12:12:51.508Z,93542.91
2022-11-17T12:15:21.200Z,93564.13
2022-11-17T12:18:13.312Z,93570.66
2022-11-17T12:20:40.981Z,93570.97
2022-11-17T12:23:35.149Z,93560.19
2022-11-17T12:26:02.843Z,93562.13
2022-11-17T12:28:32.586Z,93566.72
2022-11-17T12:31:06.743Z,93548.88
2022-11-17T12:33:54.325Z,93561.16
2022-11-17T12:36:29.668Z,93553.00
2022-11-17T12:39:01.654Z,93558.38
2022-11-17T12:41:50.132Z,93557.91
2022-11-17T12:44:50.590Z,93555.63
2022-11-17T12:47:20.277Z,93557.28
2022-11-17T12:50:14.532Z,93551.13
2022-11-17T12:52:53.482Z,93556.81
2022-11-17T12:55:54.907Z,93558.28
2022-11-17T12:58:41.691Z,93577.22
2022-11-17T13:01:36.310Z,93573.78
2022-11-17T13:04:19.286Z,93583.38
2022-11-17T13:07:04.320Z,93590.19
2022-11-17T13:09:33.543Z,93580.38
2022-11-17T13:12:01.971Z,93566.84
2022-11-17T13:14:28.667Z,93561.41
2022-11-17T13:16:55.597Z,93549.31
2022-11-17T13:19:34.945Z,93529.22
2022-11-17T13:22:06.359Z,93549.03
2022-11-17T13:24:37.385Z,93565.44
2022-11-17T13:27:07.558Z,93570.97
2022-11-17T13:29:34.386Z,93575.19
2022-11-17T13:32:13.604Z,93589.06
2022-11-17T13:34:51.432Z,93585.16
2022-11-17T13:37:21.780Z,93595.28
2022-11-17T13:40:00.836Z,93580.31
2022-11-17T13:42:31.942Z,93563.56
2022-11-17T13:45:01.799Z,93551.38
2022-11-17T13:47:42.427Z,93563.69
2022-11-17T13:50:27.017Z,93548.50
2022-11-17T13:53:13.105Z,93547.94
2022-11-17T13:55:47.117Z,93549.53
2022-11-17T13:58:26.425Z,93544.03
2022-11-17T14:00:58.656Z,93532.22
2022-11-17T14:03:39.900Z,93538.56
2022-11-17T14:06:11.657Z,93536.75
2022-11-17T14:08:40.245Z,93535.59
2022-11-17T14:11:09.941Z,93537.50
2022-11-17T14:13:40.608Z,93523.06
2022-11-17T14:16:20.754Z,93537.03
2022-11-17T14:19:03.157Z,93526.59
2022-11-17T14:21:30.655Z,93519.63
2022-11-17T14:24:11.674Z,93508.59
2022-11-17T14:26:44.775Z,93507.22
2022-11-17T14:29:13.065Z,93510.25
2022-11-17T14:31:39.704Z,93500.75
2022-11-17T14:34:06.371Z,93498.22
2022-11-17T14:36:33.669Z,93495.16
2022-11-17T14:39:02.116Z,93491.22
2022-11-17T14:41:29.197Z,93486.22
2022-11-17T14:43:56.109Z,93488.16
2022-11-17T14:46:27.130Z,93484.41
2022-11-17T14:48:54.150Z,93487.66
2022-11-17T14:51:21.449Z,93489.09
2022-11-17T14:53:48.037Z,93478.41
2022-11-17T14:56:19.234Z,93475.84
2022-11-17T14:58:47.022Z,93478.94
2022-11-17T15:01:28.522Z,93469.47
2022-11-17T15:03:57.020Z,93463.72
2022-11-17T15:06:24.414Z,93464.97
2022-11-17T15:09:02.324Z,93460.25
2022-11-17T15:11:39.141Z,93454.19
2022-11-17T15:14:06.998Z,93449.78
2022-11-17T15:16:33.803Z,93449.22
2022-11-17T15:19:00.407Z,93450.16
2022-11-17T15:21:27.155Z,93430.75
2022-11-17T15:23:53.941Z,93438.25
2022-11-17T15:26:23.512Z,93437.94
2022-11-17T15:28:50.429Z,93424.44
2022-11-17T15:31:19.996Z,93417.16
2022-11-17T15:33:48.125Z,93407.22
2022-11-17T15:36:19.477Z,93397.84
2022-11-17T15:38:47.544Z,93389.41
2022-11-17T15:41:15.103Z,93392.81
2022-11-17T15:43:43.939Z,93397.00
2022-11-17T15:46:13.168Z,93397.41
2022-11-17T15:48:44.942Z,93383.22
2022-11-17T15:51:14.577Z,93373.09
2022-11-17T15:53:42.406Z,93377.19
2022-11-17T15:56:12.588Z,93382.06
2022-11-17T15:58:41.086Z,93378.66
2022-11-17T16:01:28.902Z,93389.56
2022-11-17T16:04:03.650Z,93390.72
2022-11-17T16:06:31.894Z,93378.94
2022-11-17T16:08:58.411Z,93381.91
2022-11-17T16:11:26.968Z,93372.09
2022-11-17T16:13:55.155Z,93362.50
2022-11-17T16:16:23.359Z,93362.09
2022-11-17T16:18:49.885Z,93370.50
2022-11-17T16:21:17.484Z,93373.25
2022-11-17T16:23:53.167Z,93373.25
2022-11-17T16:26:21.165Z,93376.41
2022-11-17T16:28:48.008Z,93378.97
2022-11-17T16:31:23.308Z,93375.16
2022-11-17T16:33:54.972Z,93372.00
2022-11-17T16:36:23.692Z,93377.66
2022-11-17T16:39:00.806Z,93370.31
2022-11-17T16:41:36.179Z,93371.38
2022-11-17T16:44:06.815Z,93364.59
2022-11-17T16:46:33.490Z,93372.69
2022-11-17T16:49:07.045Z,93377.75
2022-11-17T16:51:34.117Z,93377.50
2022-11-17T16:54:03.362Z,93378.50
2022-11-17T16:56:30.775Z,93376.25
2022-11-17T16:58:58.731Z,93373.84
2022-11-17T17:01:30.564Z,93386.25
2022-11-17T17:04:02.986Z,93377.84
2022-11-17T17:06:29.956Z,93388.63
2022-11-17T17:09:01.398Z,93382.31
2022-11-17T17:11:29.347Z,93388.19
2022-11-17T17:13:58.860Z,93379.16
2022-11-17T17:16:26.163Z,93383.44
2022-11-17T17:18:59.275Z,93391.16
2022-11-17T17:21:26.986Z,93384.63
2022-11-17T17:23:53.955Z,93385.47
2022-11-17T17:26:22.728Z,93386.97
2022-11-17T17:28:51.043Z,93387.38
2022-11-17T17:31:21.719Z,93387.19
2022-11-17T17:33:50.279Z,93391.47
2022-11-17T17:36:22.432Z,93396.00
2022-11-17T17:38:55.438Z,93398.31
2022-11-17T17:41:24.706Z,93397.81
2022-11-17T17:43:59.423Z,93415.19
2022-11-17T17:46:29.603Z,93418.53
2022-11-17T17:48:56.913Z,93444.41
2022-11-17T17:51:25.191Z,93435.84
2022-11-17T17:53:53.677Z,93457.47
2022-11-17T17:56:21.778Z,93465.13
2022-11-17T17:58:49.171Z,93485.22
2022-11-17T18:01:21.425Z,93498.22
2022-11-17T18:03:50.315Z,93512.94
2022-11-17T18:06:19.761Z,93508.53
2022-11-17T18:08:46.855Z,93518.13
2022-11-17T18:11:19.578Z,93543.13
2022-11-17T18:13:48.510Z,93537.09
2022-11-17T18:16:21.765Z,93540.69
2022-11-17T18:18:49.328Z,93533.69
2022-11-17T18:21:18.384Z,93535.47
2022-11-17T18:23:45.872Z,93523.53
2022-11-17T18:26:18.353Z,93533.88
2022-11-17T18:28:59.022Z,93533.34
2022-11-17T18:31:28.613Z,93550.91
2022-11-17T18:34:01.295Z,93551.28
2022-11-17T18:36:28.870Z,93551.91
2022-11-17T18:38:57.581Z,93553.84
2022-11-17T18:41:25.301Z,93577.19
2022-11-17T18:43:52.564Z,93578.59
2022-11-17T18:46:21.640Z,93566.84
2022-11-17T18:48:51.832Z,93583.06
2022-11-17T18:51:23.598Z,93584.13
2022-11-17T18:53:51.789Z,93578.13
2022-11-17T18:56:24.080Z,93548.06
2022-11-17T18:58:50.822Z,93572.28
2022-11-17T19:01:19.091Z,93572.47
2022-11-17T19:03:48.050Z,93567.81
2022-11-17T19:06:16.455Z,93572.88
2022-11-17T19:08:43.663Z,93554.16
2022-11-17T19:11:11.902Z,93540.72
2022-11-17T19:13:40.716Z,93547.28
2022-11-17T19:16:16.363Z,93557.75
2022-11-17T19:18:44.706Z,93562.59
2022-11-17T19:21:17.335Z,93552.88
2022-11-17T19:23:51.094Z,93559.00
2022-11-17T19:26:21.371Z,93542.34
2022-11-17T19:28:48.074Z,93544.81
2022-11-17T19:31:19.572Z,93558.88
2022-11-17T19:33:48.091Z,93569.25
2022-11-17T19:36:16.171Z,93569.63
2022-11-17T19:38:43.483Z,93580.38
2022-11-17T19:41:13.350Z,93606.75
2022-11-17T19:43:45.134Z,93610.16
2022-11-17T19:46:15.084Z,93617.91
2022-11-17T19:48:43.217Z,93623.31
2022-11-17T19:51:20.067Z,93622.25
2022-11-17T19:53:51.712Z,93610.34
2022-11-17T19:56:19.033Z,93599.50
2022-11-17T19:58:46.524Z,93604.28
2022-11-17T20:01:17.268Z,93598.16
2022-11-17T20:03:44.613Z,93589.47
2022-11-17T20:06:13.772Z,93596.78
2022-11-17T20:08:40.519Z,93591.34
2022-11-17T20:11:21.990Z,93600.22
2022-11-17T20:13:49.138Z,93600.16
2022-11-17T20:16:19.146Z,93592.00
2022-11-17T20:18:50.094Z,93596.28
2022-11-17T20:21:16.910Z,93597.91
2022-11-17T20:23:43.870Z,93589.63
2022-11-17T20:26:23.117Z,93606.00
2022-11-17T20:28:49.995Z,93595.88
2022-11-17T20:31:24.375Z,93600.56
2022-11-17T20:33:52.022Z,93603.03
2022-11-17T20:36:20.632Z,93601.16
2022-11-17T20:38:52.170Z,93606.81
2022-11-17T20:41:21.109Z,93611.75
2022-11-17T20:43:49.236Z,93603.69
2022-11-17T20:46:15.795Z,93600.16
2022-11-17T20:48:42.539Z,93590.22
2022-11-17T20:51:18.110Z,93597.25
2022-11-17T20:53:45.135Z,93599.59
2022-11-17T20:56:13.133Z,93592.50
2022-11-17T20:58:40.436Z,93588.81
2022-11-17T21:01:12.662Z,93589.03
2022-11-17T21:03:39.292Z,93580.81
2022-11-17T21:08:47.227Z,93565.72
2022-11-17T21:11:36.380Z,93576.31
2022-11-17T21:14:05.531Z,93567.66
2022-11-17T21:16:32.396Z,93555.06
2022-11-17T21:18:59.582Z,93571.50
2022-11-17T21:21:26.448Z,93564.22
2022-11-17T21:23:54.335Z,93570.09
2022-11-17T21:26:23.083Z,93569.28
2022-11-17T21:28:50.248Z,93575.56
2022-11-17T21:31:19.454Z,93577.19
2022-11-17T21:33:46.618Z,93581.75
2022-11-17T21:36:17.342Z,93576.31
2022-11-17T21:38:45.505Z,93572.25
2022-11-17T21:41:15.034Z,93576.84
2022-11-17T21:43:43.099Z,93562.25
2022-11-17T21:46:13.043Z,93571.28
2022-11-17T21:48:40.102Z,93556.66
2022-11-17T21:51:13.898Z,93559.78
2022-11-17T21:53:40.672Z,93562.25
2022-11-17T21:56:07.895Z,93556.16
2022-11-17T21:58:34.718Z,93553.22
2022-11-17T22:01:13.384Z,93551.78
2022-11-17T22:03:41.717Z,93548.91
2022-11-17T22:06:14.391Z,93548.91
2022-11-17T22:08:43.066Z,93543.50
2022-11-17T22:11:14.219Z,93542.50
2022-11-17T22:13:42.019Z,93553.84
2022-11-17T22:16:13.776Z,93543.31
2022-11-17T22:18:41.530Z,93543.94
2022-11-17T22:21:09.195Z,93543.97
2022-11-17T22:23:35.946Z,93548.69
2022-11-17T22:26:05.134Z,93529.00
2022-11-17T22:28:31.952Z,93551.44
2022-11-17T22:30:58.766Z,93542.59
2022-11-17T22:33:25.460Z,93536.41
2022-11-17T22:35:52.462Z,93533.34
2022-11-17T22:38:19.248Z,93546.28
2022-11-17T22:40:45.880Z,93527.47
2022-11-17T22:43:15.412Z,93542.13
2022-11-17T22:45:42.696Z,93540.91
2022-11-17T22:48:09.541Z,93530.59
2022-11-17T22:50:36.489Z,93544.25
2022-11-17T22:53:03.202Z,93534.94
2022-11-17T22:55:30.241Z,93543.78
2022-11-17T22:57:56.916Z,93552.34
2022-11-17T23:00:23.711Z,93548.75
2022-11-17T23:02:50.440Z,93552.88
2022-11-17T23:05:17.317Z,93560.69
2022-11-17T23:07:44.568Z,93569.81
2022-11-17T23:10:12.211Z,93569.00
2022-11-17T23:12:38.991Z,93571.88
2022-11-17T23:15:07.197Z,93567.00
2022-11-17T23:17:34.885Z,93581.97
2022-11-17T23:20:01.766Z,93586.41
2022-11-17T23:22:28.460Z,93571.22
2022-11-17T23:24:55.084Z,93587.31
2022-11-17T23:27:21.789Z,93588.91
2022-11-17T23:29:48.528Z,93583.28
2022-11-17T23:32:15.112Z,93569.56
2022-11-17T23:34:42.016Z,93572.69
2022-11-17T23:37:08.678Z,93561.28
2022-11-17T23:39:35.221Z,93567.34
2022-11-17T23:42:01.987Z,93571.41
2022-11-17T23:44:28.620Z,93571.47
2022-11-17T23:46:55.436Z,93580.38
2022-11-17T23:49:22.116Z,93570.97
2022-11-17T23:51:48.734Z,93595.56
2022-11-17T23:54:15.335Z,93599.78
2022-11-17T23:56:41.929Z,93603.78
2022-11-17T23:59:08.780Z,93606.88
